Time;durP1;ratioP1;P1;durP2;ratioP2;P2;SDS_P1;SDS_P2;PMS_P1;PMS_P2;Temp;Humidity;BMP_temperature;BMP_pressure;BME280_temperature;BME280_humidity;BME280_pressure;Samples;Min_cycle;Max_cycle;Signal;HPM_P1;HPM_P2
2022/08/10 00:00:20;;;;;;;2.83;1.50;;;;;;;;;;5002103;28;20156;-83
2022/08/10 00:02:56;;;;;;;2.90;1.55;;;;;;;;;;4989031;28;20042;-83
2022/08/10 00:05:26;;;;;;;4.55;1.35;;;;;;;;;;4980815;28;20583;-84
2022/08/10 00:07:55;;;;;;;3.55;1.73;;;;;;;;;;4991501;28;20533;-83
2022/08/10 00:10:22;;;;;;;3.53;1.40;;;;;;;;;;5008197;28;20470;-84
2022/08/10 00:12:48;;;;;;;5.47;1.80;;;;;;;;;;4989257;28;20099;-84
2022/08/10 00:15:15;;;;;;;4.82;1.85;;;;;;;;;;4990239;28;20041;-84
2022/08/10 00:17:41;;;;;;;3.28;1.58;;;;;;;;;;4991407;28;20145;-83
2022/08/10 00:20:07;;;;;;;3.15;1.67;;;;;;;;;;4992172;28;20156;-83
2022/08/10 00:22:33;;;;;;;3.55;1.60;;;;;;;;;;4990038;28;20454;-83
2022/08/10 00:24:59;;;;;;;3.67;1.83;;;;;;;;;;4992040;28;20060;-84
2022/08/10 00:27:24;;;;;;;3.75;1.63;;;;;;;;;;4992519;28;20535;-84
2022/08/10 00:29:50;;;;;;;4.25;1.50;;;;;;;;;;4982330;28;20044;-83
2022/08/10 00:32:15;;;;;;;3.30;1.50;;;;;;;;;;4991361;28;20565;-84
2022/08/10 00:34:41;;;;;;;4.13;1.70;;;;;;;;;;4992116;28;20512;-84
2022/08/10 00:37:06;;;;;;;4.03;1.50;;;;;;;;;;5007298;28;20033;-83
2022/08/10 00:39:31;;;;;;;4.18;1.80;;;;;;;;;;5008412;28;20087;-84
2022/08/10 00:41:57;;;;;;;4.50;1.63;;;;;;;;;;4992224;28;20033;-84
2022/08/10 00:44:22;;;;;;;4.55;1.70;;;;;;;;;;4990561;28;20109;-84
2022/08/10 00:46:48;;;;;;;4.68;1.70;;;;;;;;;;5004765;28;20903;-84
2022/08/10 00:49:13;;;;;;;3.45;1.50;;;;;;;;;;4981883;28;20121;-84
2022/08/10 00:51:39;;;;;;;5.43;1.60;;;;;;;;;;4990898;28;20045;-84
2022/08/10 00:54:05;;;;;;;3.75;1.40;;;;;;;;;;5008264;28;20064;-84
2022/08/10 00:56:31;;;;;;;4.30;1.60;;;;;;;;;;4991701;28;20057;-84
2022/08/10 00:58:57;;;;;;;5.07;1.55;;;;;;;;;;4991666;28;20408;-83
2022/08/10 01:01:22;;;;;;;5.38;1.67;;;;;;;;;;4991036;28;20025;-83
2022/08/10 01:03:47;;;;;;;3.95;1.55;;;;;;;;;;4990852;28;20041;-83
2022/08/10 01:06:21;;;;;;;5.85;1.58;;;;;;;;;;4988531;28;20037;-83
2022/08/10 01:09:01;;;;;;;5.78;1.88;;;;;;;;;;5007783;28;20072;-83
2022/08/10 01:11:34;;;;;;;4.93;1.50;;;;;;;;;;4986261;28;21458;-84
2022/08/10 01:14:31;;;;;;;3.20;1.50;;;;;;;;;;4990361;28;20037;-83
2022/08/10 01:16:59;;;;;;;;;;;;;;;;;;4985989;28;20100;-83
2022/08/10 01:19:48;;;;;;;5.03;1.70;;;;;;;;;;4985362;28;19921;-83
2022/08/10 01:22:44;;;;;;;9.45;1.88;;;;;;;;;;4986840;28;21043;-83
2022/08/10 01:25:24;;;;;;;3.85;1.70;;;;;;;;;;5006500;28;20354;-83
2022/08/10 01:28:16;;;;;;;3.92;1.88;;;;;;;;;;5005645;28;20073;-84
2022/08/10 01:30:45;;;;;;;4.30;1.70;;;;;;;;;;5004664;28;20416;-84
2022/08/10 01:33:29;;;;;;;3.25;1.58;;;;;;;;;;4990281;28;20489;-83
2022/08/10 01:35:59;;;;;;;4.32;1.88;;;;;;;;;;4990731;28;20622;-83
2022/08/10 01:38:33;;;;;;;4.05;1.92;;;;;;;;;;5006043;28;20137;-83
2022/08/10 01:41:11;;;;;;;4.88;1.90;;;;;;;;;;4989320;28;20041;-83
2022/08/10 01:43:49;;;;;;;4.63;1.85;;;;;;;;;;4991385;28;20037;-84
2022/08/10 01:46:16;;;;;;;5.90;2.17;;;;;;;;;;4990458;28;20033;-84
2022/08/10 01:48:47;;;;;;;4.17;1.87;;;;;;;;;;4990405;28;20814;-84
2022/08/10 01:51:37;;;;;;;4.47;2.10;;;;;;;;;;4988872;28;20084;-83
2022/08/10 01:54:05;;;;;;;4.50;1.90;;;;;;;;;;5003616;28;20113;-84
2022/08/10 01:56:32;;;;;;;4.05;1.60;;;;;;;;;;4990210;28;20115;-83
2022/08/10 01:59:00;;;;;;;;;;;;;;;;;;4980050;28;20037;-82
2022/08/10 02:01:28;;;;;;;4.10;1.77;;;;;;;;;;4990252;28;20036;-83
2022/08/10 02:03:57;;;;;;;3.72;1.90;;;;;;;;;;4991226;28;22737;-83
2022/08/10 02:06:25;;;;;;;5.95;2.10;;;;;;;;;;4980545;28;20033;-83
2022/08/10 02:08:52;;;;;;;3.22;1.85;;;;;;;;;;4990645;28;20404;-84
2022/08/10 02:11:19;;;;;;;3.75;2.17;;;;;;;;;;4990250;28;20405;-85
2022/08/10 02:13:44;;;;;;;6.20;2.10;;;;;;;;;;4990667;28;20554;-84
2022/08/10 02:16:10;;;;;;;5.78;2.10;;;;;;;;;;5020996;28;20075;-83
2022/08/10 02:18:36;;;;;;;4.80;2.10;;;;;;;;;;4990713;28;20045;-84
2022/08/10 02:21:04;;;;;;;4.35;1.92;;;;;;;;;;4990162;28;20044;-82
2022/08/10 02:23:31;;;;;;;4.75;2.08;;;;;;;;;;4991030;28;20511;-83
2022/08/10 02:25:58;;;;;;;3.47;1.98;;;;;;;;;;4990028;28;20043;-85
2022/08/10 02:28:26;;;;;;;4.25;2.28;;;;;;;;;;4993395;28;20030;-84
2022/08/10 02:30:52;;;;;;;;;;;;;;;;;;4992360;28;20137;-82
2022/08/10 02:33:20;;;;;;;4.43;2.33;;;;;;;;;;4990569;28;20007;-84
2022/08/10 02:35:45;;;;;;;;;;;;;;;;;;5009734;28;20051;-85
2022/08/10 02:38:11;;;;;;;4.60;1.97;;;;;;;;;;4992946;28;19920;-83
2022/08/10 02:40:41;;;;;;;5.72;2.53;;;;;;;;;;4982739;28;20272;-83
2022/08/10 02:43:27;;;;;;;4.53;2.40;;;;;;;;;;4992429;28;20744;-84
2022/08/10 02:46:02;;;;;;;4.10;2.30;;;;;;;;;;4987570;28;20034;-84
2022/08/10 02:48:42;;;;;;;4.78;2.10;;;;;;;;;;4994244;28;20269;-84
2022/08/10 02:51:13;;;;;;;6.68;2.00;;;;;;;;;;5008956;28;20116;-84
2022/08/10 02:53:49;;;;;;;7.03;2.45;;;;;;;;;;5009137;28;20049;-83
2022/08/10 02:56:20;;;;;;;4.90;2.10;;;;;;;;;;4990208;28;20064;-84
2022/08/10 02:58:54;;;;;;;6.18;2.20;;;;;;;;;;5001775;28;20124;-83
2022/08/10 03:01:24;;;;;;;5.53;2.47;;;;;;;;;;4992037;28;20405;-84
2022/08/10 03:04:06;;;;;;;5.57;2.30;;;;;;;;;;4992766;28;20121;-83
2022/08/10 03:06:39;;;;;;;5.60;2.20;;;;;;;;;;4993261;28;20037;-83
2022/08/10 03:09:07;;;;;;;4.32;2.15;;;;;;;;;;4993114;28;20468;-85
2022/08/10 03:11:34;;;;;;;5.25;2.28;;;;;;;;;;4984517;28;20029;-85
2022/08/10 03:14:00;;;;;;;5.25;2.50;;;;;;;;;;4999616;28;20041;-84
2022/08/10 03:16:26;;;;;;;4.78;2.35;;;;;;;;;;5008704;28;20041;-84
2022/08/10 03:18:52;;;;;;;3.88;2.13;;;;;;;;;;5008075;28;20439;-84
2022/08/10 03:21:19;;;;;;;4.20;2.40;;;;;;;;;;5009124;28;20069;-84
2022/08/10 03:23:44;;;;;;;4.47;2.22;;;;;;;;;;5010223;28;20045;-83
2022/08/10 03:26:15;;;;;;;6.25;2.80;;;;;;;;;;4991759;28;20172;-84
2022/08/10 03:28:40;;;;;;;5.57;2.80;;;;;;;;;;5009708;28;20069;-86
2022/08/10 03:31:06;;;;;;;5.70;2.63;;;;;;;;;;5008541;28;20083;-86
2022/08/10 03:33:34;;;;;;;6.25;2.45;;;;;;;;;;4983643;28;20398;-93
2022/08/10 03:36:00;;;;;;;4.28;2.33;;;;;;;;;;5025411;28;20497;-88
2022/08/10 03:38:28;;;;;;;5.25;2.40;;;;;;;;;;5025584;28;20110;-91
2022/08/10 03:40:58;;;;;;;5.30;2.10;;;;;;;;;;5024979;28;20493;-88
2022/08/10 03:43:24;;;;;;;4.13;2.42;;;;;;;;;;5022766;28;20439;-90
2022/08/10 03:45:54;;;;;;;5.50;2.42;;;;;;;;;;5024386;28;20033;-89
2022/08/10 03:48:21;;;;;;;5.85;2.97;;;;;;;;;;5024038;28;20492;-89
2022/08/10 03:50:46;;;;;;;5.82;2.40;;;;;;;;;;5024105;28;20508;-90
2022/08/10 03:53:12;;;;;;;3.90;2.10;;;;;;;;;;4992755;28;20037;-90
2022/08/10 03:55:37;;;;;;;5.55;2.53;;;;;;;;;;5007458;28;20041;-89
2022/08/10 03:58:03;;;;;;;4.20;2.47;;;;;;;;;;5009490;28;20029;-90
2022/08/10 04:00:33;;;;;;;3.75;2.22;;;;;;;;;;5008785;28;20075;-90
2022/08/10 04:03:00;;;;;;;5.20;2.33;;;;;;;;;;5008221;28;20041;-89
2022/08/10 04:05:26;;;;;;;3.95;2.20;;;;;;;;;;5016157;28;20029;-89
2022/08/10 04:07:51;;;;;;;4.82;2.33;;;;;;;;;;5006983;28;20580;-89
2022/08/10 04:10:17;;;;;;;7.95;2.50;;;;;;;;;;5008137;28;20481;-87
2022/08/10 04:12:42;;;;;;;4.80;2.50;;;;;;;;;;5008321;28;20051;-89
2022/08/10 04:15:08;;;;;;;7.18;2.65;;;;;;;;;;5008182;28;20041;-89
2022/08/10 04:17:33;;;;;;;4.47;2.40;;;;;;;;;;5023722;28;20041;-89
2022/08/10 04:19:59;;;;;;;4.68;2.72;;;;;;;;;;5008497;28;20035;-88
2022/08/10 04:22:26;;;;;;;5.88;2.90;;;;;;;;;;5005361;28;20056;-88
2022/08/10 04:24:59;;;;;;;5.25;2.60;;;;;;;;;;5007109;28;20042;-88
2022/08/10 04:27:25;;;;;;;5.20;2.85;;;;;;;;;;5022536;28;20073;-89
2022/08/10 04:29:54;;;;;;;7.18;2.88;;;;;;;;;;5004868;28;20512;-88
2022/08/10 04:32:20;;;;;;;6.95;2.55;;;;;;;;;;4995899;28;20045;-90
2022/08/10 04:34:46;;;;;;;5.53;2.38;;;;;;;;;;5005518;28;20047;-89
2022/08/10 04:37:12;;;;;;;5.55;2.63;;;;;;;;;;4999160;28;20041;-88
2022/08/10 04:39:38;;;;;;;5.57;2.53;;;;;;;;;;4992256;28;20497;-90
2022/08/10 04:42:04;;;;;;;6.88;2.92;;;;;;;;;;5003982;28;20052;-88
2022/08/10 04:44:31;;;;;;;5.38;2.70;;;;;;;;;;4991495;28;20033;-89
2022/08/10 04:46:57;;;;;;;4.90;2.45;;;;;;;;;;4991789;28;20064;-89
2022/08/10 04:49:22;;;;;;;5.90;2.88;;;;;;;;;;4991834;28;20037;-89
2022/08/10 04:51:47;;;;;;;5.53;2.60;;;;;;;;;;4990678;28;20045;-88
2022/08/10 04:54:13;;;;;;;5.10;2.47;;;;;;;;;;4990621;28;20045;-88
2022/08/10 04:56:38;;;;;;;6.10;2.53;;;;;;;;;;5004844;28;20052;-88
2022/08/10 04:59:07;;;;;;;5.30;2.78;;;;;;;;;;4993971;28;20056;-90
2022/08/10 05:01:34;;;;;;;5.85;2.80;;;;;;;;;;4950561;28;20512;-93
2022/08/10 05:04:00;;;;;;;4.68;2.63;;;;;;;;;;5006729;28;20033;-89
2022/08/10 05:06:25;;;;;;;6.00;2.60;;;;;;;;;;4990619;28;20556;-90
2022/08/10 05:08:50;;;;;;;5.72;2.80;;;;;;;;;;5022608;28;20485;-89
2022/08/10 05:11:16;;;;;;;5.63;2.63;;;;;;;;;;4991093;28;20112;-89
2022/08/10 05:13:41;;;;;;;8.45;2.75;;;;;;;;;;4990391;28;20492;-89
2022/08/10 05:16:07;;;;;;;5.13;2.50;;;;;;;;;;4990587;28;20516;-90
2022/08/10 05:18:32;;;;;;;5.80;2.53;;;;;;;;;;4990482;28;20048;-90
2022/08/10 05:20:57;;;;;;;6.28;2.40;;;;;;;;;;4991040;28;20057;-89
2022/08/10 05:23:23;;;;;;;6.10;2.40;;;;;;;;;;5005893;28;20087;-90
2022/08/10 05:25:48;;;;;;;6.60;2.83;;;;;;;;;;4990790;28;20373;-89
2022/08/10 05:28:13;;;;;;;4.90;2.67;;;;;;;;;;5004924;28;20497;-90
2022/08/10 05:30:39;;;;;;;6.00;2.70;;;;;;;;;;4982000;28;20044;-89
2022/08/10 05:33:04;;;;;;;4.68;2.33;;;;;;;;;;5004555;28;20125;-90
2022/08/10 05:35:30;;;;;;;6.65;2.80;;;;;;;;;;5006714;28;20053;-91
2022/08/10 05:37:55;;;;;;;7.30;2.60;;;;;;;;;;4990971;28;20033;-90
2022/08/10 05:40:22;;;;;;;7.13;2.83;;;;;;;;;;4993979;28;20091;-90
2022/08/10 05:42:48;;;;;;;6.20;2.53;;;;;;;;;;5006112;28;20133;-89
2022/08/10 05:45:24;;;;;;;7.35;2.85;;;;;;;;;;4990763;28;20141;-90
2022/08/10 05:47:50;;;;;;;6.43;2.50;;;;;;;;;;4968801;28;20042;-90
2022/08/10 05:50:20;;;;;;;5.45;2.92;;;;;;;;;;4993970;28;20404;-89
2022/08/10 05:52:45;;;;;;;5.05;2.28;;;;;;;;;;5005886;28;20044;-89
2022/08/10 05:55:11;;;;;;;4.97;2.50;;;;;;;;;;5005032;28;20048;-90
2022/08/10 05:57:37;;;;;;;6.50;2.50;;;;;;;;;;5005269;28;20585;-90
2022/08/10 06:00:09;;;;;;;5.68;2.72;;;;;;;;;;5007045;28;20037;-89
2022/08/10 06:02:41;;;;;;;5.28;2.35;;;;;;;;;;4980188;28;20033;-89
2022/08/10 06:05:13;;;;;;;5.15;2.72;;;;;;;;;;5011715;28;20436;-90
2022/08/10 06:08:01;;;;;;;6.97;2.97;;;;;;;;;;4993337;28;20099;-89
2022/08/10 06:10:30;;;;;;;5.10;2.13;;;;;;;;;;5007377;28;20148;-88
2022/08/10 06:15:47;;;;;;;6.40;2.50;;;;;;;;;;5003488;28;20049;-89
2022/08/10 06:18:14;;;;;;;4.65;2.33;;;;;;;;;;5036712;28;20559;-87
2022/08/10 06:20:40;;;;;;;5.53;2.50;;;;;;;;;;5001289;28;20595;-89
2022/08/10 06:23:06;;;;;;;4.00;2.10;;;;;;;;;;5024446;28;20045;-88
2022/08/10 06:25:32;;;;;;;6.28;2.47;;;;;;;;;;5026210;28;20040;-89
2022/08/10 06:27:59;;;;;;;6.20;2.83;;;;;;;;;;5015509;28;20080;-88
2022/08/10 06:30:25;;;;;;;9.77;2.83;;;;;;;;;;4988978;28;20838;-89
2022/08/10 06:32:52;;;;;;;8.17;2.67;;;;;;;;;;5026531;28;20064;-89
2022/08/10 06:35:18;;;;;;;4.82;2.50;;;;;;;;;;5010454;28;20087;-89
2022/08/10 06:37:44;;;;;;;4.10;2.00;;;;;;;;;;5008719;28;20063;-89
2022/08/10 06:40:10;;;;;;;6.18;2.40;;;;;;;;;;5009525;28;20245;-89
2022/08/10 06:42:43;;;;;;;3.88;1.90;;;;;;;;;;4998763;28;20092;-89
2022/08/10 06:45:12;;;;;;;5.68;2.15;;;;;;;;;;5025735;28;20124;-89
2022/08/10 06:47:59;;;;;;;5.63;2.40;;;;;;;;;;5026449;28;20038;-91
2022/08/10 06:50:45;;;;;;;6.00;2.67;;;;;;;;;;5009218;28;20041;-93
2022/08/10 06:53:14;;;;;;;4.85;2.53;;;;;;;;;;5023310;28;20042;-89
2022/08/10 06:55:42;;;;;;;5.32;2.30;;;;;;;;;;4990155;28;20037;-90
2022/08/10 06:58:08;;;;;;;6.88;2.13;;;;;;;;;;5020145;28;20041;-90
2022/08/10 07:00:38;;;;;;;4.53;2.35;;;;;;;;;;5006327;28;20037;-90
2022/08/10 07:03:08;;;;;;;9.82;2.90;;;;;;;;;;5010097;28;20107;-89
2022/08/10 07:05:37;;;;;;;5.57;2.45;;;;;;;;;;5007660;28;20037;-91
2022/08/10 07:08:03;;;;;;;5.85;2.35;;;;;;;;;;4997122;28;20038;-92
2022/08/10 07:10:31;;;;;;;4.93;2.42;;;;;;;;;;4950131;28;20762;-90
2022/08/10 07:12:58;;;;;;;9.00;2.13;;;;;;;;;;4999964;28;20079;-89
2022/08/10 07:15:29;;;;;;;9.73;2.50;;;;;;;;;;5013101;28;20155;-92
2022/08/10 07:17:56;;;;;;;4.38;2.40;;;;;;;;;;5009430;28;20048;-90
2022/08/10 07:20:22;;;;;;;6.78;2.33;;;;;;;;;;5021982;28;20047;-89
2022/08/10 07:22:51;;;;;;;4.95;2.35;;;;;;;;;;4999525;28;20042;-88
2022/08/10 07:25:27;;;;;;;6.82;2.00;;;;;;;;;;5024733;28;20048;-91
2022/08/10 07:27:54;;;;;;;5.88;2.25;;;;;;;;;;5015029;28;20052;-89
2022/08/10 07:30:20;;;;;;;4.88;1.95;;;;;;;;;;5022655;28;20033;-90
2022/08/10 07:32:48;;;;;;;4.32;1.75;;;;;;;;;;4983622;28;20046;-90
2022/08/10 07:35:14;;;;;;;4.07;1.92;;;;;;;;;;5006753;28;20374;-92
2022/08/10 07:37:40;;;;;;;3.87;1.90;;;;;;;;;;5008551;28;20385;-91
2022/08/10 07:40:07;;;;;;;3.22;1.67;;;;;;;;;;4994860;28;20079;-88
2022/08/10 07:42:33;;;;;;;3.40;1.63;;;;;;;;;;4992214;28;20040;-90
2022/08/10 07:44:58;;;;;;;4.63;1.90;;;;;;;;;;5008713;28;20033;-88
2022/08/10 07:47:30;;;;;;;3.38;1.80;;;;;;;;;;4991102;28;20069;-90
2022/08/10 07:49:59;;;;;;;4.30;1.83;;;;;;;;;;5009400;28;20047;-90
2022/08/10 07:52:25;;;;;;;4.20;1.95;;;;;;;;;;5007124;28;20044;-91
2022/08/10 07:54:51;;;;;;;3.72;1.67;;;;;;;;;;5012094;28;20427;-91
2022/08/10 07:57:22;;;;;;;5.68;1.80;;;;;;;;;;4991528;28;20132;-90
2022/08/10 07:59:55;;;;;;;3.20;1.65;;;;;;;;;;4993171;28;20038;-88
2022/08/10 08:02:33;;;;;;;3.60;1.70;;;;;;;;;;5007884;28;20493;-93
2022/08/10 08:05:00;;;;;;;4.97;1.50;;;;;;;;;;5009323;28;20038;-89
2022/08/10 08:07:26;;;;;;;5.05;1.58;;;;;;;;;;5006310;28;20092;-90
2022/08/10 08:09:54;;;;;;;2.50;1.25;;;;;;;;;;4998612;28;20389;-91
2022/08/10 08:12:20;;;;;;;4.75;1.55;;;;;;;;;;4992335;28;20064;-90
2022/08/10 08:14:46;;;;;;;4.00;1.27;;;;;;;;;;4993031;28;20038;-91
2022/08/10 08:17:15;;;;;;;4.85;1.20;;;;;;;;;;4992266;28;20042;-91
2022/08/10 08:19:42;;;;;;;3.67;1.00;;;;;;;;;;4993156;28;20068;-88
2022/08/10 08:22:08;;;;;;;;;;;;;;;;;;4992121;28;20037;-93
2022/08/10 08:24:34;;;;;;;2.90;1.20;;;;;;;;;;4971215;28;19924;-91
2022/08/10 08:27:01;;;;;;;2.63;1.00;;;;;;;;;;4991291;28;20049;-86
2022/08/10 08:29:27;;;;;;;3.03;1.25;;;;;;;;;;4992233;28;20047;-93
2022/08/10 08:31:53;;;;;;;2.83;1.35;;;;;;;;;;4987323;28;20072;-91
2022/08/10 08:34:19;;;;;;;4.10;1.05;;;;;;;;;;4986717;28;20052;-89
2022/08/10 08:36:45;;;;;;;2.72;1.20;;;;;;;;;;4995060;28;20041;-90
2022/08/10 08:39:15;;;;;;;3.40;1.42;;;;;;;;;;4992117;28;20031;-89
2022/08/10 08:41:46;;;;;;;4.15;0.98;;;;;;;;;;4991072;28;20072;-93
2022/08/10 08:44:23;;;;;;;2.72;1.08;;;;;;;;;;5012384;28;20491;-90
2022/08/10 08:46:57;;;;;;;3.33;1.73;;;;;;;;;;5022155;28;20068;-92
2022/08/10 08:49:40;;;;;;;3.17;0.88;;;;;;;;;;5026128;28;20028;-90
2022/08/10 08:52:24;;;;;;;3.35;0.93;;;;;;;;;;5024746;28;20525;-94
2022/08/10 08:55:07;;;;;;;9.02;0.90;;;;;;;;;;4987010;28;20035;-90
2022/08/10 08:57:50;;;;;;;2.80;1.10;;;;;;;;;;5009013;28;20055;-96
2022/08/10 09:00:39;;;;;;;2.55;0.90;;;;;;;;;;5025766;28;20064;-92
2022/08/10 09:03:22;;;;;;;2.72;1.00;;;;;;;;;;5025209;28;20716;-92
2022/08/10 09:06:06;;;;;;;4.18;1.10;;;;;;;;;;5024877;28;20444;-93
2022/08/10 09:08:36;;;;;;;3.28;0.82;;;;;;;;;;5008856;28;20091;-91
2022/08/10 09:11:26;;;;;;;2.83;0.90;;;;;;;;;;5022018;28;20129;-89
2022/08/10 09:14:19;;;;;;;3.53;1.20;;;;;;;;;;5024252;28;20041;-90
2022/08/10 09:17:10;;;;;;;2.53;0.60;;;;;;;;;;5007081;28;20109;-94
2022/08/10 09:19:48;;;;;;;3.22;0.80;;;;;;;;;;5000746;28;20410;-90
2022/08/10 09:22:37;;;;;;;2.22;0.60;;;;;;;;;;5024937;28;20065;-91
2022/08/10 09:25:05;;;;;;;3.13;0.68;;;;;;;;;;4981319;28;20037;-93
2022/08/10 09:27:40;;;;;;;3.70;1.95;;;;;;;;;;5008245;28;20578;-91
2022/08/10 09:30:07;;;;;;;2.55;0.60;;;;;;;;;;5024952;28;20045;-93
2022/08/10 09:32:41;;;;;;;2.05;0.60;;;;;;;;;;5001526;28;20493;-89
2022/08/10 09:35:32;;;;;;;1.65;0.52;;;;;;;;;;4988237;28;20025;-88
2022/08/10 09:38:30;;;;;;;1.13;0.60;;;;;;;;;;5006515;28;20045;-90
2022/08/10 09:41:18;;;;;;;4.60;0.80;;;;;;;;;;5005954;28;20046;-89
2022/08/10 09:44:07;;;;;;;1.55;0.40;;;;;;;;;;5008340;28;20404;-89
2022/08/10 09:46:57;;;;;;;3.17;1.00;;;;;;;;;;4988698;28;20501;-88
2022/08/10 09:49:37;;;;;;;2.13;0.50;;;;;;;;;;5010960;28;20397;-89
2022/08/10 09:52:08;;;;;;;1.67;0.57;;;;;;;;;;4984952;28;20033;-89
2022/08/10 09:55:09;;;;;;;2.33;0.55;;;;;;;;;;4999382;28;20034;-89
2022/08/10 09:58:20;;;;;;;1.60;0.43;;;;;;;;;;4994083;28;20068;-88
2022/08/10 10:00:54;;;;;;;1.60;0.50;;;;;;;;;;4937242;28;20552;-87
2022/08/10 10:03:32;;;;;;;1.85;0.35;;;;;;;;;;5002394;28;20491;-89
2022/08/10 10:06:09;;;;;;;2.58;0.55;;;;;;;;;;5010005;28;20041;-89
2022/08/10 10:08:53;;;;;;;1.80;0.60;;;;;;;;;;5009931;28;20046;-89
2022/08/10 10:11:35;;;;;;;1.70;0.70;;;;;;;;;;4999978;28;20116;-92
2022/08/10 10:14:15;;;;;;;1.80;0.50;;;;;;;;;;5000824;28;20061;-88
2022/08/10 10:16:54;;;;;;;2.35;0.70;;;;;;;;;;4984235;28;20061;-89
2022/08/10 10:19:38;;;;;;;1.60;0.50;;;;;;;;;;4987598;28;20173;-89
2022/08/10 10:22:04;;;;;;;1.52;0.47;;;;;;;;;;5009624;28;20037;-89
2022/08/10 10:24:50;;;;;;;1.70;0.60;;;;;;;;;;5011119;28;20033;-89
2022/08/10 10:27:33;;;;;;;1.60;0.50;;;;;;;;;;5003929;28;20096;-90
2022/08/10 10:30:08;;;;;;;1.92;0.40;;;;;;;;;;5021952;28;20058;-89
2022/08/10 10:32:33;;;;;;;1.17;0.40;;;;;;;;;;5026605;28;20103;-89
2022/08/10 10:35:02;;;;;;;1.13;0.40;;;;;;;;;;5027524;28;20037;-89
2022/08/10 10:37:29;;;;;;;5.15;0.50;;;;;;;;;;5007770;28;20128;-89
2022/08/10 10:39:58;;;;;;;1.40;0.40;;;;;;;;;;5003110;28;20121;-89
2022/08/10 10:42:55;;;;;;;1.10;0.43;;;;;;;;;;5005947;28;20030;-88
2022/08/10 10:45:35;;;;;;;1.48;0.57;;;;;;;;;;4962787;28;20042;-87
2022/08/10 10:48:57;;;;;;;2.20;0.70;;;;;;;;;;5027334;28;20049;-90
2022/08/10 10:51:35;;;;;;;2.20;0.60;;;;;;;;;;4942612;28;20115;-90
2022/08/10 10:54:29;;;;;;;1.85;0.50;;;;;;;;;;4969845;28;20038;-88
2022/08/10 10:57:05;;;;;;;1.98;0.60;;;;;;;;;;4914796;29;20039;-88
2022/08/10 10:59:42;;;;;;;2.33;0.50;;;;;;;;;;4929423;29;20070;-90
2022/08/10 11:02:31;;;;;;;1.48;0.50;;;;;;;;;;4916723;29;20051;-87
2022/08/10 11:05:13;;;;;;;1.13;0.50;;;;;;;;;;4926180;29;20040;-91
2022/08/10 11:07:49;;;;;;;1.10;0.45;;;;;;;;;;4931106;29;20047;-90
2022/08/10 11:10:34;;;;;;;;;;;;;;;;;;4915845;29;20555;-89
2022/08/10 11:13:06;;;;;;;3.13;0.70;;;;;;;;;;4920310;29;20013;-87
2022/08/10 11:16:21;;;;;;;2.28;0.50;;;;;;;;;;4930208;29;20132;-89
2022/08/10 11:18:54;;;;;;;2.05;0.98;;;;;;;;;;4900483;29;20047;-89
2022/08/10 11:21:46;;;;;;;1.67;0.70;;;;;;;;;;4891487;29;20036;-87
2022/08/10 11:24:32;;;;;;;3.00;0.85;;;;;;;;;;4897799;29;20064;-88
2022/08/10 11:27:04;;;;;;;1.48;0.65;;;;;;;;;;4881092;29;20052;-88
2022/08/10 11:29:45;;;;;;;1.33;0.45;;;;;;;;;;4923599;29;20036;-89
2022/08/10 11:32:23;;;;;;;1.30;0.50;;;;;;;;;;4935866;28;20063;-88
2022/08/10 11:35:27;;;;;;;1.40;0.52;;;;;;;;;;4998148;28;20073;-90
2022/08/10 11:38:01;;;;;;;1.70;0.60;;;;;;;;;;5011431;28;20072;-90
2022/08/10 11:40:45;;;;;;;1.67;0.55;;;;;;;;;;5022822;28;20045;-89
2022/08/10 11:43:20;;;;;;;3.22;0.93;;;;;;;;;;5013897;28;20041;-89
2022/08/10 11:45:51;;;;;;;3.03;1.03;;;;;;;;;;5000001;28;20049;-89
2022/08/10 11:48:42;;;;;;;1.90;0.55;;;;;;;;;;5007298;28;20033;-89
2022/08/10 11:51:20;;;;;;;3.38;0.90;;;;;;;;;;4981931;28;20125;-91
2022/08/10 11:54:07;;;;;;;2.38;0.70;;;;;;;;;;5002860;28;20046;-90
2022/08/10 11:56:44;;;;;;;2.38;0.90;;;;;;;;;;5020842;28;20045;-87
2022/08/10 12:01:55;;;;;;;1.92;0.75;;;;;;;;;;5016444;28;20041;-90
2022/08/10 12:04:21;;;;;;;3.30;1.00;;;;;;;;;;5024935;28;20037;-89
2022/08/10 12:06:48;;;;;;;1.65;0.70;;;;;;;;;;5022584;28;20490;-88
2022/08/10 12:09:15;;;;;;;2.10;0.60;;;;;;;;;;5003668;28;20383;-88
2022/08/10 12:11:42;;;;;;;3.00;0.68;;;;;;;;;;5006756;28;20167;-89
2022/08/10 12:14:16;;;;;;;2.03;0.85;;;;;;;;;;4997845;28;20041;-88
2022/08/10 12:16:48;;;;;;;2.47;0.63;;;;;;;;;;4999173;28;20397;-88
2022/08/10 12:19:33;;;;;;;2.35;0.70;;;;;;;;;;5015542;28;20673;-88
2022/08/10 12:22:05;;;;;;;2.63;1.27;;;;;;;;;;4975847;28;20026;-89
2022/08/10 12:24:48;;;;;;;1.90;0.80;;;;;;;;;;5013538;28;20042;-90
2022/08/10 12:27:21;;;;;;;3.75;0.90;;;;;;;;;;5001330;28;20041;-90
2022/08/10 12:29:53;;;;;;;2.65;1.00;;;;;;;;;;4993584;28;20041;-91
2022/08/10 12:32:24;;;;;;;3.65;0.95;;;;;;;;;;4992264;28;20384;-89
2022/08/10 12:35:00;;;;;;;1.95;0.88;;;;;;;;;;5009837;28;20037;-90
2022/08/10 12:44:34;;;;;;;2.67;0.75;;;;;;;;;;4880795;29;20098;-91
2022/08/10 12:47:46;;;;;;;2.55;0.80;;;;;;;;;;4872320;29;20085;-92
2022/08/10 12:54:44;;;;;;;1.13;0.65;;;;;;;;;;4824515;29;20059;-89
2022/08/10 12:58:07;;;;;;;3.92;0.70;;;;;;;;;;4844847;29;20056;-89
2022/08/10 13:04:45;;;;;;;3.47;0.90;;;;;;;;;;4885892;28;20481;-91
2022/08/10 13:07:11;;;;;;;2.38;0.80;;;;;;;;;;4872589;28;20553;-91
2022/08/10 13:09:41;;;;;;;3.47;1.05;;;;;;;;;;4911330;28;20146;-90
2022/08/10 13:12:12;;;;;;;2.65;0.80;;;;;;;;;;4902641;28;20039;-90
2022/08/10 13:14:41;;;;;;;2.58;0.70;;;;;;;;;;4905872;28;20554;-90
2022/08/10 13:17:08;;;;;;;2.95;0.90;;;;;;;;;;4943823;28;20043;-88
2022/08/10 13:19:36;;;;;;;1.85;0.73;;;;;;;;;;4927684;29;20098;-90
2022/08/10 13:22:03;;;;;;;2.20;0.82;;;;;;;;;;4918170;29;20039;-91
2022/08/10 13:24:32;;;;;;;2.38;0.98;;;;;;;;;;4940164;28;20086;-90
2022/08/10 13:27:11;;;;;;;1.77;0.70;;;;;;;;;;4960651;28;20092;-91
2022/08/10 13:29:41;;;;;;;2.67;0.80;;;;;;;;;;5022000;28;20045;-91
2022/08/10 13:32:08;;;;;;;2.05;0.80;;;;;;;;;;5019271;28;20551;-90
2022/08/10 13:34:34;;;;;;;;;;;;;;;;;;4996727;28;20038;-90
2022/08/10 13:37:02;;;;;;;2.25;1.00;;;;;;;;;;5015872;28;19914;-89
2022/08/10 13:39:36;;;;;;;2.88;1.00;;;;;;;;;;5005732;28;20559;-89
2022/08/10 13:42:04;;;;;;;2.47;0.80;;;;;;;;;;5006575;28;20033;-89
2022/08/10 13:44:33;;;;;;;2.22;0.80;;;;;;;;;;5020926;28;20397;-90
2022/08/10 13:46:59;;;;;;;2.08;0.80;;;;;;;;;;5007100;28;20121;-89
2022/08/10 13:49:27;;;;;;;2.42;0.82;;;;;;;;;;5007906;28;20120;-88
2022/08/10 13:51:57;;;;;;;1.85;0.80;;;;;;;;;;5005700;28;20508;-88
2022/08/10 13:54:26;;;;;;;12.20;1.20;;;;;;;;;;5023560;28;20627;-88
2022/08/10 13:56:52;;;;;;;2.17;0.70;;;;;;;;;;5005886;28;20037;-89
2022/08/10 13:59:19;;;;;;;12.98;1.70;;;;;;;;;;5020290;28;20049;-88
2022/08/10 14:01:49;;;;;;;2.40;0.80;;;;;;;;;;4965504;28;20049;-89
2022/08/10 14:04:45;;;;;;;2.92;0.77;;;;;;;;;;5003143;28;20512;-89
2022/08/10 14:07:12;;;;;;;1.58;0.70;;;;;;;;;;5003347;28;20037;-89
2022/08/10 14:09:46;;;;;;;2.42;0.95;;;;;;;;;;4982260;28;20503;-88
2022/08/10 14:12:13;;;;;;;2.97;1.00;;;;;;;;;;4993757;28;20044;-89
2022/08/10 14:14:41;;;;;;;2.42;0.90;;;;;;;;;;4978645;28;20037;-89
2022/08/10 14:17:08;;;;;;;2.45;0.85;;;;;;;;;;5008048;28;20033;-89
2022/08/10 14:19:39;;;;;;;3.20;0.80;;;;;;;;;;4975469;28;20045;-89
2022/08/10 14:22:08;;;;;;;2.80;0.90;;;;;;;;;;4991453;28;20033;-88
2022/08/10 14:24:35;;;;;;;3.00;0.82;;;;;;;;;;4973949;28;20486;-88
2022/08/10 14:27:09;;;;;;;4.40;1.00;;;;;;;;;;4987627;28;20047;-88
2022/08/10 14:29:41;;;;;;;2.17;0.70;;;;;;;;;;4984330;28;20075;-89
2022/08/10 14:32:12;;;;;;;2.10;0.80;;;;;;;;;;4973215;28;20037;-89
2022/08/10 14:34:58;;;;;;;2.72;0.90;;;;;;;;;;4983921;28;20095;-90
2022/08/10 14:37:35;;;;;;;1.85;0.90;;;;;;;;;;4977829;28;20037;-87
2022/08/10 14:40:04;;;;;;;2.45;1.00;;;;;;;;;;5006083;28;20038;-88
2022/08/10 14:42:36;;;;;;;2.55;0.80;;;;;;;;;;4979993;28;20120;-88
2022/08/10 14:45:22;;;;;;;1.70;0.70;;;;;;;;;;5009127;28;20033;-88
2022/08/10 14:47:51;;;;;;;2.50;0.80;;;;;;;;;;5014069;28;20068;-88
2022/08/10 14:50:19;;;;;;;2.22;0.88;;;;;;;;;;5008386;28;20878;-87
2022/08/10 14:52:47;;;;;;;3.40;1.00;;;;;;;;;;5025052;28;20505;-88
2022/08/10 14:55:12;;;;;;;;;;;;;;;;;;5014430;28;20034;-88
2022/08/10 14:57:42;;;;;;;1.75;0.82;;;;;;;;;;5009992;28;20399;-87
2022/08/10 15:00:08;;;;;;;3.90;1.02;;;;;;;;;;5008902;28;20453;-90
2022/08/10 15:02:42;;;;;;;2.08;0.80;;;;;;;;;;4999935;28;20065;-87
2022/08/10 15:05:09;;;;;;;2.83;1.10;;;;;;;;;;5020631;28;20128;-84
2022/08/10 15:07:36;;;;;;;2.53;1.03;;;;;;;;;;5016269;28;20039;-88
2022/08/10 15:10:04;;;;;;;3.35;0.98;;;;;;;;;;5008536;28;20038;-87
2022/08/10 15:12:31;;;;;;;2.80;0.90;;;;;;;;;;5007094;28;20021;-87
2022/08/10 15:14:58;;;;;;;2.67;0.95;;;;;;;;;;5009352;28;22644;-88
2022/08/10 15:17:27;;;;;;;2.78;0.90;;;;;;;;;;5002283;28;20535;-85
2022/08/10 15:19:57;;;;;;;2.47;0.95;;;;;;;;;;4972636;28;20053;-86
2022/08/10 15:22:23;;;;;;;3.15;0.98;;;;;;;;;;5005899;28;20124;-86
2022/08/10 15:25:03;;;;;;;2.70;0.90;;;;;;;;;;4991937;28;20638;-87
2022/08/10 15:27:34;;;;;;;2.50;0.70;;;;;;;;;;4990983;28;20099;-87
2022/08/10 15:30:00;;;;;;;3.00;1.00;;;;;;;;;;5012873;28;20507;-88
2022/08/10 15:38:05;;;;;;;2.03;0.90;;;;;;;;;;5023573;28;20052;-85
2022/08/10 15:40:38;;;;;;;3.03;1.00;;;;;;;;;;4997362;28;20324;-87